createdAt,value
2023-11-12T00:03:34.448Z,99500.22
2023-11-12T00:08:36.004Z,99494.56
2023-11-12T00:13:37.574Z,99498.44
2023-11-12T00:18:40.452Z,99495.66
2023-11-12T00:23:41.994Z,99484.59
2023-11-12T00:28:43.662Z,99481.03
2023-11-12T00:33:45.943Z,99484.69
2023-11-12T00:38:48.630Z,99488.03
2023-11-12T00:43:50.450Z,99487.69
2023-11-12T00:48:52.051Z,99486.28
2023-11-12T00:53:53.565Z,99490.88
2023-11-12T00:58:55.097Z,99487.53
2023-11-12T01:03:57.300Z,99478.88
2023-11-12T01:08:58.897Z,99477.31
2023-11-12T01:19:06.957Z,99486.19
2023-11-12T01:24:09.201Z,99492.31
2023-11-12T01:29:11.450Z,99490.69
2023-11-12T01:34:15.187Z,99494.28
2023-11-12T01:39:16.788Z,99495.16
2023-11-12T01:44:18.517Z,99486.78
2023-11-12T01:49:21.634Z,99475.91
2023-11-12T01:54:28.194Z,99479.00
2023-11-12T01:59:31.983Z,99491.16
2023-11-12T02:04:33.593Z,99482.53
2023-11-12T02:09:35.189Z,99490.91
2023-11-12T02:14:39.132Z,99485.38
2023-11-12T02:19:40.655Z,99480.50
2023-11-12T02:24:43.592Z,99482.31
2023-11-12T02:29:49.805Z,99484.09
2023-11-12T02:34:51.387Z,99486.66
2023-11-12T02:39:53.041Z,99484.69
2023-11-12T02:44:54.844Z,99483.00
2023-11-12T02:50:15.483Z,99482.84
2023-11-12T02:55:18.090Z,99481.63
2023-11-12T03:00:19.946Z,99482.03
2023-11-12T03:05:21.983Z,99477.00
2023-11-12T03:10:24.096Z,99484.69
2023-11-12T03:15:26.658Z,99476.03
2023-11-12T03:20:28.318Z,99477.84
2023-11-12T03:25:29.835Z,99482.16
2023-11-12T03:30:31.849Z,99480.91
2023-11-12T03:35:33.266Z,99486.66
2023-11-12T03:40:34.765Z,99490.53
2023-11-12T03:45:36.486Z,99491.66
2023-11-12T03:50:38.551Z,99501.88
2023-11-12T03:55:39.956Z,99502.97
2023-11-12T04:00:42.333Z,99504.19
2023-11-12T04:05:44.009Z,99497.16
2023-11-12T04:10:47.005Z,99503.59
2023-11-12T04:15:48.620Z,99504.69
2023-11-12T04:20:50.258Z,99510.00
2023-11-12T04:25:51.747Z,99512.06
2023-11-12T04:30:53.431Z,99508.03
2023-11-12T04:35:54.924Z,99513.34
2023-11-12T04:40:56.656Z,99509.47
2023-11-12T04:45:58.239Z,99513.75
2023-11-12T04:51:00.425Z,99508.91
2023-11-12T04:56:02.071Z,99512.50
2023-11-12T05:01:07.694Z,99520.47
2023-11-12T05:06:09.774Z,99519.53
2023-11-12T05:11:11.339Z,99513.66
2023-11-12T05:16:12.845Z,99520.63
2023-11-12T05:21:14.400Z,99528.44
2023-11-12T05:26:16.048Z,99534.03
2023-11-12T05:31:17.672Z,99538.06
2023-11-12T05:36:19.272Z,99548.72
2023-11-12T05:41:21.167Z,99542.91
2023-11-12T05:46:22.777Z,99551.09
2023-11-12T05:51:24.315Z,99548.16
2023-11-12T05:56:25.927Z,99546.78
2023-11-12T06:01:27.897Z,99550.03
2023-11-12T06:06:29.553Z,99553.25
2023-11-12T06:11:31.093Z,99557.38
2023-11-12T06:16:32.681Z,99568.94
2023-11-12T06:21:34.285Z,99572.22
2023-11-12T06:26:35.860Z,99574.97
2023-11-12T06:31:37.346Z,99572.22
2023-11-12T06:36:38.992Z,99581.72
2023-11-12T06:41:43.635Z,99584.69
2023-11-12T06:46:46.315Z,99584.53
2023-11-12T06:51:47.933Z,99594.31
2023-11-12T06:56:49.613Z,99602.72
2023-11-12T07:01:51.168Z,99608.03
2023-11-12T07:07:05.521Z,99612.34
2023-11-12T07:12:11.166Z,99612.81
2023-11-12T07:17:12.698Z,99607.50
2023-11-12T07:22:14.262Z,99612.81
2023-11-12T07:27:15.828Z,99614.66
2023-11-12T07:32:17.347Z,99618.72
2023-11-12T07:37:18.847Z,99616.94
2023-11-12T07:42:20.557Z,99625.22
2023-11-12T07:47:22.377Z,99621.72
2023-11-12T07:52:23.871Z,99614.06
2023-11-12T07:57:25.456Z,99623.88
2023-11-12T08:02:27.505Z,99626.09
2023-11-12T08:07:28.931Z,99631.13
2023-11-12T08:12:30.480Z,99636.75
2023-11-12T08:17:32.445Z,99635.19
2023-11-12T08:22:33.863Z,99636.59
2023-11-12T08:27:36.416Z,99642.38
2023-11-12T08:32:38.231Z,99636.06
2023-11-12T08:37:39.905Z,99647.84
2023-11-12T08:42:41.538Z,99643.50
2023-11-12T08:47:43.084Z,99638.16
2023-11-12T08:52:44.706Z,99647.25
2023-11-12T08:57:46.300Z,99646.28
2023-11-12T09:02:47.941Z,99655.66
2023-11-12T09:07:49.823Z,99655.66
2023-11-12T09:12:51.282Z,99657.72
2023-11-12T09:17:54.584Z,99669.94
2023-11-12T09:22:56.109Z,99667.94
2023-11-12T09:27:57.730Z,99670.88
2023-11-12T09:32:59.306Z,99663.50
2023-11-12T09:38:00.911Z,99676.91
2023-11-12T09:43:03.995Z,99676.06
2023-11-12T09:48:17.947Z,99683.03
2023-11-12T09:53:20.365Z,99676.03
2023-11-12T09:58:21.936Z,99679.69
2023-11-12T10:03:23.563Z,99675.00
2023-11-12T10:08:25.365Z,99673.34
2023-11-12T10:13:37.420Z,99670.72
2023-11-12T10:18:39.451Z,99673.84
2023-11-12T10:23:40.959Z,99673.38
2023-11-12T10:28:42.630Z,99677.22
2023-11-12T10:33:59.926Z,99681.25
2023-11-12T10:39:06.962Z,99680.31
2023-11-12T10:44:12.367Z,99677.63
2023-11-12T10:49:14.241Z,99661.72
2023-11-12T10:54:16.816Z,99668.97
2023-11-12T10:59:19.221Z,99677.75
2023-11-12T11:04:22.217Z,99682.75
2023-11-12T11:09:24.352Z,99682.22
2023-11-12T11:14:30.885Z,99688.25
2023-11-12T11:19:44.729Z,99692.50
2023-11-12T11:24:46.515Z,99695.28
2023-11-12T11:30:10.251Z,99692.72
2023-11-12T11:35:19.183Z,99704.38
2023-11-12T11:40:34.201Z,99703.53
2023-11-12T11:46:08.849Z,99697.25
2023-11-12T11:51:40.179Z,99688.13
2023-11-12T11:56:41.897Z,99682.94
2023-11-12T12:01:48.166Z,99681.84
2023-11-12T12:06:51.093Z,99679.97
2023-11-12T12:11:54.186Z,99680.94
2023-11-12T12:17:07.209Z,99678.97
2023-11-12T12:22:09.358Z,99691.38
2023-11-12T12:27:11.001Z,99691.50
2023-11-12T12:32:15.008Z,99689.34
2023-11-12T12:37:25.488Z,99694.69
2023-11-12T12:42:28.905Z,99685.00
2023-11-12T12:47:39.313Z,99686.81
2023-11-12T12:52:45.777Z,99673.75
2023-11-12T12:57:52.152Z,99678.75
2023-11-12T13:02:54.102Z,99679.66
2023-11-12T13:07:56.237Z,99669.50
2023-11-12T13:12:57.801Z,99677.66
2023-11-12T13:17:59.396Z,99680.84
2023-11-12T13:23:02.085Z,99681.84
2023-11-12T13:28:06.610Z,99680.78
2023-11-12T13:33:08.945Z,99688.34
2023-11-12T13:38:11.214Z,99691.88
2023-11-12T13:43:13.062Z,99688.56
2023-11-12T13:48:14.672Z,99690.31
2023-11-12T13:53:16.414Z,99701.56
2023-11-12T13:58:19.328Z,99709.81
2023-11-12T14:03:20.949Z,99704.22
2023-11-12T14:08:22.563Z,99702.00
2023-11-12T14:13:25.055Z,99704.28
2023-11-12T14:18:26.663Z,99717.44
2023-11-12T14:23:29.980Z,99717.19
2023-11-12T14:28:32.531Z,99724.91
2023-11-12T14:33:34.975Z,99719.41
2023-11-12T14:38:36.628Z,99723.22
2023-11-12T14:43:38.791Z,99726.19
2023-11-12T14:48:40.442Z,99730.97
2023-11-12T14:53:42.087Z,99728.69
2023-11-12T14:58:43.715Z,99731.06
2023-11-12T15:03:45.374Z,99728.28
2023-11-12T15:08:46.930Z,99731.66
2023-11-12T15:13:48.461Z,99736.03
2023-11-12T15:18:50.188Z,99737.34
2023-11-12T15:23:51.852Z,99739.88
2023-11-12T15:28:55.610Z,99744.19
2023-11-12T15:33:57.598Z,99742.94
2023-11-12T15:38:59.184Z,99755.56
2023-11-12T15:44:01.541Z,99755.84
2023-11-12T15:49:03.175Z,99756.66
2023-11-12T15:54:05.891Z,99761.28
2023-11-12T15:59:07.853Z,99770.56
2023-11-12T16:04:09.500Z,99773.38
2023-11-12T16:09:12.933Z,99775.78
2023-11-12T16:14:14.446Z,99788.41
2023-11-12T16:19:16.191Z,99792.44
2023-11-12T16:24:17.708Z,99787.00
2023-11-12T16:29:19.393Z,99792.16
2023-11-12T16:34:20.933Z,99792.56
2023-11-12T16:39:22.450Z,99802.06
2023-11-12T16:44:25.493Z,99794.97
2023-11-12T16:49:27.464Z,99802.09
2023-11-12T16:54:29.282Z,99799.69
2023-11-12T16:59:30.993Z,99810.66
2023-11-12T17:04:32.672Z,99810.78
2023-11-12T17:09:34.243Z,99816.78
2023-11-12T17:14:36.978Z,99824.09
2023-11-12T17:19:38.624Z,99818.06
2023-11-12T17:24:40.215Z,99824.66
2023-11-12T17:29:41.805Z,99825.63
2023-11-12T17:34:43.672Z,99827.06
2023-11-12T17:39:45.466Z,99833.34
2023-11-12T17:44:49.718Z,99827.59
2023-11-12T17:49:56.692Z,99821.72
2023-11-12T17:54:58.426Z,99829.72
2023-11-12T18:00:00.255Z,99831.53
2023-11-12T18:05:02.131Z,99840.00
2023-11-12T18:10:04.811Z,99846.72
2023-11-12T18:15:07.081Z,99841.72
2023-11-12T18:20:08.973Z,99839.72
2023-11-12T18:25:10.759Z,99842.13
2023-11-12T18:30:12.552Z,99848.38
2023-11-12T18:35:15.092Z,99849.47
2023-11-12T18:40:18.545Z,99853.50
2023-11-12T18:45:20.456Z,99853.50
2023-11-12T18:50:22.394Z,99854.50
2023-11-12T18:55:23.812Z,99864.00
2023-11-12T19:00:25.553Z,99869.50
2023-11-12T19:05:27.055Z,99862.09
2023-11-12T19:10:31.001Z,99854.72
2023-11-12T19:15:32.591Z,99858.09
2023-11-12T19:20:40.822Z,99853.06
2023-11-12T19:25:44.288Z,99855.66
2023-11-12T19:30:47.495Z,99852.47
2023-11-12T19:35:51.458Z,99859.78
2023-11-12T19:40:53.185Z,99862.56
2023-11-12T19:45:54.680Z,99859.16
2023-11-12T19:50:56.182Z,99860.81
2023-11-12T19:55:58.152Z,99864.53
2023-11-12T20:01:00.566Z,99862.09
2023-11-12T20:06:02.948Z,99867.13
2023-11-12T20:11:05.329Z,99868.78
2023-11-12T20:16:10.367Z,99879.59
2023-11-12T20:21:11.975Z,99877.75
2023-11-12T20:26:16.504Z,99885.06
2023-11-12T20:31:18.629Z,99883.34
2023-11-12T20:36:20.262Z,99883.34
2023-11-12T20:41:21.844Z,99880.00
2023-11-12T20:46:23.432Z,99891.22
2023-11-12T20:51:25.466Z,99886.78
2023-11-12T20:56:26.965Z,99892.91
2023-11-12T21:01:32.846Z,99897.25
2023-11-12T21:06:35.954Z,99903.53
2023-11-12T21:11:46.875Z,99903.53
2023-11-12T21:16:50.355Z,99907.88
2023-11-12T21:21:52.021Z,99911.50
2023-11-12T21:26:53.564Z,99906.44
2023-11-12T21:31:55.433Z,99914.16
2023-11-12T21:36:57.020Z,99909.09
2023-11-12T21:41:58.519Z,99910.78
2023-11-12T21:47:00.926Z,99916.09
2023-11-12T21:52:03.323Z,99918.03
2023-11-12T21:57:05.101Z,99917.78
2023-11-12T22:02:07.662Z,99908.69
2023-11-12T22:07:09.345Z,99907.75
2023-11-12T22:12:12.193Z,99908.56
2023-11-12T22:17:13.778Z,99907.97
2023-11-12T22:22:15.350Z,99907.97
2023-11-12T22:27:16.882Z,99907.03
2023-11-12T22:32:18.388Z,99914.84
2023-11-12T22:37:20.064Z,99921.41
2023-11-12T22:42:21.623Z,99924.44
2023-11-12T22:47:23.116Z,99929.88
2023-11-12T22:52:24.624Z,99934.50
2023-11-12T22:57:26.763Z,99952.88
2023-11-12T23:02:28.536Z,99945.69
2023-11-12T23:07:31.562Z,99962.69
2023-11-12T23:12:34.420Z,99962.53
2023-11-12T23:17:36.062Z,99969.28
2023-11-12T23:22:37.740Z,99976.28
2023-11-12T23:27:39.645Z,99982.31
2023-11-12T23:32:43.397Z,99974.13
2023-11-12T23:37:44.938Z,99976.97
2023-11-12T23:42:46.907Z,99973.97
2023-11-12T23:47:48.513Z,99984.50
2023-11-12T23:52:50.054Z,99996.56
2023-11-12T23:57:52.717Z,100002.72
